EDAC/ADC METAR and TAF weather

Enter ICAO airport designator
Station Type Date Time Source
EDAC METAR 2019/10/21 22:20 UTC NOAA

EDAC 212220Z AUTO 13003KT 1200 R22/1500U // SCT100/// 11/10 Q1022


Station Type Date Time Source
EDAC Decoded METAR 2019/10/21 22:20 UTC NOAA

Altenburg Nobitz, Germany (EDAC) 50-58N 012-30E
Oct 21, 2019 - 06:20 PM EDT / 2019.10.21 2220 UTC
Wind: from the SE (130 degrees) at 3 MPH (3 KT):0
Visibility: less than 1 mile:0
Sky conditions: partly cloudy
Temperature: 51 F (11 C)
Dew Point: 50 F (10 C)
Relative Humidity: 93%
Pressure (altimeter): 30.18 in. Hg (1022 hPa)
ob: EDAC 212220Z AUTO 13003KT 1200 R22/1500U // SCT100/// 11/10 Q1022
cycle: 22

Station Type Date Time Source
EDAC TAF UTC NOAA

Error!

Example: see airport list